Terminal Aerodrome Forecast
Issued by NWS

Home | Current Version | Previous Version | Text Only | Print | Product List | Glossary On
Versions: 1 2 3 4 5 6 7 8 9 10 11 12 13 14 15 16 17 18
000
FTAK31 PAJN 050500
TAFASI
TAF
PASI 050521Z 0506/0606 VRB04KT P6SM BKN250
     FM051200 VRB03KT P6SM SCT005 SCT100 BKN200
     FM052000 28009KT P6SM FEW015 BKN200
     FM060400 30011KT P6SM SCT005 BKN200=

USA.gov is the U.S. government's official web portal to all federal, state and local government web resources and services.